This is the latest recevied weather packets stored in our database for station/object W0PE-1. If no packets are shown the sender has not sent any weather packets the latest 1 day(s).
| Time | Temp. | Humidity | Pressure | Rain* | Wind** | Luminosity | Snow |
|---|---|---|---|---|---|---|---|
| 1778030101 | 18.89° C | 52% | 1013.4 hPa | 0 mm | 0.89 m/s, 184° | - | - |
| 1778029278 | 18.89° C | 52% | 1013.3 hPa | 0 mm | 0.45 m/s, 234° | - | - |
| 1778028359 | 18.89° C | 50% | 1013.3 hPa | 0 mm | 1.34 m/s, 179° | - | - |
| 1778027459 | 18.89° C | 51% | 1013.3 hPa | 0 mm | 0.89 m/s, 241° | - | - |
| 1778026559 | 18.89° C | 51% | 1013.3 hPa | 0 mm | 0.89 m/s, 190° | - | - |
| 1778025658 | 18.89° C | 52% | 1013.3 hPa | 0 mm | 1.34 m/s, 246° | - | - |
| 1778024769 | 18.89° C | 51% | 1013.3 hPa | 0 mm | 1.34 m/s, 177° | - | - |
| 1778023857 | 18.33° C | 51% | 1013.4 hPa | 0 mm | 0.89 m/s, 200° | - | - |
| 1778022957 | 18.89° C | 51% | 1013.5 hPa | 0 mm | 0.45 m/s, 217° | - | - |
| 1778022055 | 18.89° C | 49% | 1013.5 hPa | 0 mm | 0.89 m/s, 206° | - | - |
| 1778021155 | 18.89° C | 49% | 1013.5 hPa | 0 mm | 0.45 m/s, 240° | - | - |
| 1778020255 | 19.44° C | 49% | 1013.6 hPa | 0 mm | 0.89 m/s, 240° | - | - |
| 1778019353 | 20° C | 48% | 1013.6 hPa | 0 mm | 1.34 m/s, 215° | - | - |
| 1778018452 | 20.56° C | 47% | 1013.7 hPa | 0 mm | 1.34 m/s, 140° | - | - |
| 1778017569 | 20.56° C | 48% | 1013.8 hPa | 0 mm | 1.79 m/s, 247° | - | - |
| 1778016660 | 21.11° C | 49% | 1013.9 hPa | 0 mm | 1.34 m/s, 244° | - | - |
| 1778015750 | 21.11° C | 50% | 1014.1 hPa | 0 mm | 1.34 m/s, 250° | - | - |
| 1778014856 | 20.56° C | 49% | 1014 hPa | 0 mm | 0.89 m/s, 205° | - | - |
| 1778013956 | 20° C | 52% | 1014.2 hPa | 0 mm | 0.89 m/s, 206° | - | - |
| 1778013050 | 19.44° C | 56% | 1014.1 hPa | 0 mm | 1.79 m/s, 241° | - | - |
| 1778012142 | 20° C | 57% | 1014.1 hPa | 0 mm | 0.89 m/s, 257° | - | - |
| 1778011255 | 18.33° C | 60% | 1014.2 hPa | 0 mm | 0.89 m/s, 190° | - | - |
| 1778010347 | 17.78° C | 61% | 1014.4 hPa | 0 mm | 0.89 m/s, 185° | - | - |
| 1778009445 | 18.33° C | 59% | 1014.6 hPa | 0 mm | 0.89 m/s, 211° | - | - |
| 1778008539 | 18.33° C | 61% | 1014.7 hPa | 0 mm | 0.89 m/s, 229° | - | - |
* Rain latest hour (hover to see other rain measurements)
** Current wind speed in m/s (hover to see current wind gust speed)